Decoded Metar for KEMV (EMPORIA in VA, USA) (IATA:EMV) | Meteo·Mobile Aviation Weather
aviador You're here:

KEMV Decoded Metar

EMPORIA in VA, USA
Report Time2019-10-21 00:55:00
UTC Time2019-10-21 01:09:02
Flight Rules mvfr MVFR
Wind310° at 09 Gusting to 15 kt
W.Decomp.*RWY 33: 8.9 kt HW 1.6 kt LCW
VisibilityN/A
Phenomena:N/A
Clouds:Overcast 013 Hf
Expected CloudBase > 800 ft AGL from Temp-Dew spread
Ceiling1,300 ft
Temp15°C (ISA 0)
Dew Point13°C (88% RH)
AAT12.7°C
QNH1012 hPa
Density Alt394 ft
Elevation128 ft
Report Wrong Elevation
Raw Report
METAR KEMV 210055Z AUTO 31009G15KT OVC013 15/13 A2987 RMK AO2 T01450130=

Extra information for KEMV:More info

Metar Taf Metar & Taf Last 4 Metars F.Rules Stats Wind Profile Meteogram Temp Stats Airport Information Weather charts Add Link Nearby VenuesMetar ALERT Operation Metar Decoded Social comments

AIRNAV info for KEMV